UAL194 KPWM-KBOS
Flight info
| Callsign | UAL194 |
|---|---|
| Flight time | 0h 28m |
| Altitude | 14000 |
| Route | OOSHN OOSHN5 |
| Aircraft | B738/M-SDE2E3FGHIRWXY/L |
Departure
| Time | 2026-05-07 19:46 |
|---|---|
| Airport | Portland International Jetport (KPWM) |
Arrival
| Time | 2026-05-07 20:15 |
|---|---|
| Airport | Boston Logan International Airport (KBOS) |
| Time | Latitude | Longitude | Altitude | Speed | Heading |
|---|---|---|---|---|---|
| 2026-05-07 18:54 | 43.64677 | -70.31232 | 65 ft | 0 kts | 34° |
| 2026-05-07 19:13 | 43.64676 | -70.31233 | 66 ft | 1 kts | 34° |
| 2026-05-07 19:14 | 43.64669 | -70.31240 | 59 ft | 1 kts | 34° |
| 2026-05-07 19:14 | 43.64660 | -70.31248 | 62 ft | 2 kts | 34° |
| 2026-05-07 19:14 | 43.64651 | -70.31258 | 56 ft | 2 kts | 69° |
| 2026-05-07 19:14 | 43.64648 | -70.31273 | 58 ft | 2 kts | 109° |
| 2026-05-07 19:15 | 43.64651 | -70.31281 | 59 ft | 1 kts | 111° |
| 2026-05-07 19:15 | 43.64651 | -70.31282 | 59 ft | 1 kts | 111° |
| 2026-05-07 19:16 | 43.64652 | -70.31285 | 60 ft | 0 kts | 111° |
| 2026-05-07 19:16 | 43.64653 | -70.31288 | 60 ft | 0 kts | 111° |
| 2026-05-07 19:26 | 43.64677 | -70.31232 | 68 ft | 5 kts | 34° |
| 2026-05-07 19:35 | 43.64671 | -70.31238 | 66 ft | 1 kts | 34° |
| 2026-05-07 19:35 | 43.64657 | -70.31251 | 67 ft | 2 kts | 36° |
| 2026-05-07 19:35 | 43.64647 | -70.31271 | 68 ft | 3 kts | 99° |
| 2026-05-07 19:35 | 43.64650 | -70.31283 | 69 ft | 0 kts | 126° |
| 2026-05-07 19:40 | 43.64642 | -70.31269 | 69 ft | 4 kts | 126° |
| 2026-05-07 19:40 | 43.64618 | -70.31223 | 57 ft | 8 kts | 125° |
| 2026-05-07 19:40 | 43.64603 | -70.31141 | 57 ft | 10 kts | 94° |
| 2026-05-07 19:41 | 43.64595 | -70.31036 | 63 ft | 12 kts | 98° |
| 2026-05-07 19:41 | 43.64582 | -70.30906 | 58 ft | 15 kts | 98° |
| 2026-05-07 19:41 | 43.64569 | -70.30744 | 57 ft | 18 kts | 96° |
| 2026-05-07 19:41 | 43.64560 | -70.30564 | 55 ft | 19 kts | 94° |
| 2026-05-07 19:42 | 43.64549 | -70.30368 | 53 ft | 22 kts | 96° |
| 2026-05-07 19:42 | 43.64529 | -70.30151 | 53 ft | 22 kts | 97° |
| 2026-05-07 19:42 | 43.64517 | -70.29989 | 54 ft | 11 kts | 95° |
| 2026-05-07 19:42 | 43.64511 | -70.29961 | 48 ft | 0 kts | 116° |
| 2026-05-07 19:43 | 43.64509 | -70.29956 | 49 ft | 3 kts | 116° |
| 2026-05-07 19:43 | 43.64487 | -70.29916 | 50 ft | 5 kts | 138° |
| 2026-05-07 19:43 | 43.64456 | -70.29906 | 48 ft | 6 kts | 181° |
| 2026-05-07 19:43 | 43.64421 | -70.29922 | 49 ft | 5 kts | 212° |
| 2026-05-07 19:44 | 43.64406 | -70.29957 | 49 ft | 3 kts | 262° |
| 2026-05-07 19:44 | 43.64406 | -70.29966 | 49 ft | 0 kts | 266° |
| 2026-05-07 19:45 | 43.64413 | -70.30075 | 51 ft | 40 kts | 277° |
| 2026-05-07 19:45 | 43.64465 | -70.30774 | 57 ft | 103 kts | 275° |
| 2026-05-07 19:45 | 43.64555 | -70.31931 | 150 ft | 134 kts | 276° |
| 2026-05-07 19:46 | 43.64657 | -70.33290 | 447 ft | 153 kts | 275° |
| 2026-05-07 19:46 | 43.64727 | -70.34745 | 1030 ft | 154 kts | 272° |
| 2026-05-07 19:46 | 43.64883 | -70.36146 | 1685 ft | 141 kts | 311° |
| 2026-05-07 19:46 | 43.65676 | -70.36845 | 2193 ft | 133 kts | 327° |
| 2026-05-07 19:47 | 43.66148 | -70.37832 | 2358 ft | 133 kts | 268° |
| 2026-05-07 19:47 | 43.65655 | -70.38958 | 2527 ft | 148 kts | 229° |
| 2026-05-07 19:47 | 43.64719 | -70.39675 | 2572 ft | 173 kts | 189° |
| 2026-05-07 19:47 | 43.63562 | -70.39020 | 2645 ft | 196 kts | 137° |
| 2026-05-07 19:48 | 43.62667 | -70.37467 | 2725 ft | 220 kts | 128° |
| 2026-05-07 19:48 | 43.61715 | -70.35650 | 3111 ft | 245 kts | 127° |
| 2026-05-07 19:48 | 43.60681 | -70.33673 | 3617 ft | 263 kts | 127° |
| 2026-05-07 19:48 | 43.59586 | -70.31594 | 4175 ft | 278 kts | 127° |
| 2026-05-07 19:49 | 43.58431 | -70.29408 | 4920 ft | 285 kts | 127° |
| 2026-05-07 19:49 | 43.57254 | -70.27184 | 5737 ft | 289 kts | 127° |
| 2026-05-07 19:49 | 43.56054 | -70.24935 | 6528 ft | 293 kts | 128° |
| 2026-05-07 19:49 | 43.54761 | -70.22734 | 7230 ft | 297 kts | 137° |
| 2026-05-07 19:50 | 43.53019 | -70.21356 | 7952 ft | 289 kts | 170° |
| 2026-05-07 19:50 | 43.51087 | -70.21377 | 8697 ft | 274 kts | 206° |
| 2026-05-07 19:50 | 43.49612 | -70.22839 | 9527 ft | 257 kts | 240° |
| 2026-05-07 19:50 | 43.48725 | -70.24923 | 10311 ft | 251 kts | 256° |
| 2026-05-07 19:51 | 43.48549 | -70.27340 | 10855 ft | 260 kts | 270° |
| 2026-05-07 19:51 | 43.48677 | -70.29894 | 11263 ft | 275 kts | 274° |
| 2026-05-07 19:51 | 43.48746 | -70.32587 | 11627 ft | 289 kts | 259° |
| 2026-05-07 19:51 | 43.47813 | -70.35076 | 12135 ft | 306 kts | 230° |
| 2026-05-07 19:52 | 43.45941 | -70.36604 | 12814 ft | 328 kts | 203° |
| 2026-05-07 19:52 | 43.43594 | -70.36684 | 13599 ft | 354 kts | 178° |
| 2026-05-07 19:52 | 43.41250 | -70.35374 | 13974 ft | 371 kts | 163° |
| 2026-05-07 19:52 | 43.38941 | -70.33807 | 14015 ft | 369 kts | 164° |
| 2026-05-07 19:53 | 43.36668 | -70.32284 | 14022 ft | 368 kts | 164° |
| 2026-05-07 19:53 | 43.34368 | -70.30751 | 14019 ft | 368 kts | 164° |
| 2026-05-07 19:53 | 43.32065 | -70.29217 | 14013 ft | 368 kts | 164° |
| 2026-05-07 19:53 | 43.29731 | -70.27865 | 14013 ft | 359 kts | 172° |
| 2026-05-07 19:54 | 43.27353 | -70.26909 | 14010 ft | 355 kts | 175° |
| 2026-05-07 19:54 | 43.24963 | -70.26097 | 14004 ft | 353 kts | 177° |
| 2026-05-07 19:54 | 43.22571 | -70.25332 | 14005 ft | 353 kts | 177° |
| 2026-05-07 19:54 | 43.20180 | -70.24581 | 14006 ft | 353 kts | 177° |
| 2026-05-07 19:55 | 43.17788 | -70.23834 | 14007 ft | 352 kts | 177° |
| 2026-05-07 19:55 | 43.15397 | -70.23090 | 14007 ft | 352 kts | 177° |
| 2026-05-07 19:55 | 43.13004 | -70.22346 | 14008 ft | 352 kts | 177° |
| 2026-05-07 19:55 | 43.10613 | -70.21604 | 14008 ft | 352 kts | 177° |
| 2026-05-07 19:56 | 43.08218 | -70.20861 | 14004 ft | 352 kts | 177° |
| 2026-05-07 19:56 | 43.05829 | -70.20121 | 13995 ft | 353 kts | 177° |
| 2026-05-07 19:56 | 43.03436 | -70.19381 | 13996 ft | 353 kts | 177° |
| 2026-05-07 19:56 | 43.01044 | -70.18643 | 14000 ft | 352 kts | 177° |
| 2026-05-07 19:57 | 42.98653 | -70.17906 | 13999 ft | 353 kts | 177° |
| 2026-05-07 19:57 | 42.96260 | -70.17169 | 13997 ft | 353 kts | 178° |
| 2026-05-07 19:57 | 42.93866 | -70.16430 | 13998 ft | 353 kts | 177° |
| 2026-05-07 19:57 | 42.91500 | -70.15700 | 13999 ft | 353 kts | 177° |
| 2026-05-07 19:58 | 42.89105 | -70.14960 | 14001 ft | 353 kts | 177° |
| 2026-05-07 19:58 | 42.86712 | -70.14223 | 14004 ft | 353 kts | 177° |
| 2026-05-07 19:58 | 42.84319 | -70.13487 | 14007 ft | 353 kts | 177° |
| 2026-05-07 19:58 | 42.81920 | -70.12753 | 14009 ft | 353 kts | 177° |
| 2026-05-07 19:59 | 42.79552 | -70.12519 | 14020 ft | 330 kts | 199° |
| 2026-05-07 19:59 | 42.77464 | -70.13573 | 14029 ft | 316 kts | 214° |
| 2026-05-07 19:59 | 42.75568 | -70.15063 | 14023 ft | 314 kts | 217° |
| 2026-05-07 19:59 | 42.73672 | -70.16554 | 13849 ft | 316 kts | 215° |
| 2026-05-07 20:00 | 42.71659 | -70.17879 | 12846 ft | 332 kts | 208° |
| 2026-05-07 20:00 | 42.69448 | -70.18882 | 11962 ft | 338 kts | 204° |
| 2026-05-07 20:00 | 42.67193 | -70.19783 | 11201 ft | 336 kts | 205° |
| 2026-05-07 20:00 | 42.65009 | -70.20781 | 10722 ft | 327 kts | 207° |
| 2026-05-07 20:01 | 42.62909 | -70.21820 | 10498 ft | 313 kts | 207° |
| 2026-05-07 20:01 | 42.60901 | -70.22778 | 10371 ft | 299 kts | 207° |
| 2026-05-07 20:01 | 42.59005 | -70.23740 | 10244 ft | 284 kts | 210° |
| 2026-05-07 20:01 | 42.57204 | -70.24713 | 10008 ft | 276 kts | 210° |
| 2026-05-07 20:02 | 42.55426 | -70.25676 | 9686 ft | 273 kts | 210° |
| 2026-05-07 20:02 | 42.53694 | -70.26616 | 9352 ft | 270 kts | 210° |
| 2026-05-07 20:02 | 42.51945 | -70.27565 | 8767 ft | 275 kts | 209° |
| 2026-05-07 20:02 | 42.50159 | -70.28533 | 8339 ft | 276 kts | 208° |
| 2026-05-07 20:03 | 42.48595 | -70.29871 | 8010 ft | 260 kts | 232° |
| 2026-05-07 20:03 | 42.47641 | -70.31913 | 7573 ft | 253 kts | 253° |
| 2026-05-07 20:03 | 42.47215 | -70.34251 | 7002 ft | 258 kts | 260° |
| 2026-05-07 20:03 | 42.46834 | -70.36628 | 6641 ft | 257 kts | 259° |
| 2026-05-07 20:04 | 42.46441 | -70.38949 | 6341 ft | 255 kts | 259° |
| 2026-05-07 20:04 | 42.46035 | -70.41278 | 6025 ft | 253 kts | 259° |
| 2026-05-07 20:04 | 42.45637 | -70.43589 | 5717 ft | 251 kts | 259° |
| 2026-05-07 20:04 | 42.45249 | -70.45854 | 5582 ft | 238 kts | 259° |
| 2026-05-07 20:05 | 42.44899 | -70.47872 | 5480 ft | 204 kts | 259° |
| 2026-05-07 20:05 | 42.44595 | -70.49630 | 5364 ft | 180 kts | 260° |
| 2026-05-07 20:05 | 42.44326 | -70.51195 | 5256 ft | 162 kts | 260° |
| 2026-05-07 20:05 | 42.44079 | -70.52640 | 5161 ft | 156 kts | 260° |
| 2026-05-07 20:06 | 42.43833 | -70.54076 | 5047 ft | 156 kts | 260° |
| 2026-05-07 20:06 | 42.43586 | -70.55507 | 4920 ft | 156 kts | 260° |
| 2026-05-07 20:06 | 42.43339 | -70.56942 | 4777 ft | 156 kts | 260° |
| 2026-05-07 20:06 | 42.43091 | -70.58373 | 4637 ft | 156 kts | 260° |
| 2026-05-07 20:07 | 42.42843 | -70.59804 | 4495 ft | 156 kts | 259° |
| 2026-05-07 20:07 | 42.42600 | -70.61208 | 4346 ft | 155 kts | 260° |
| 2026-05-07 20:07 | 42.42349 | -70.62653 | 4216 ft | 156 kts | 260° |
| 2026-05-07 20:07 | 42.42106 | -70.64052 | 4125 ft | 154 kts | 260° |
| 2026-05-07 20:08 | 42.41861 | -70.65463 | 4034 ft | 155 kts | 259° |
| 2026-05-07 20:08 | 42.41614 | -70.66890 | 3941 ft | 156 kts | 259° |
| 2026-05-07 20:08 | 42.41366 | -70.68308 | 3845 ft | 153 kts | 260° |
| 2026-05-07 20:08 | 42.41122 | -70.69714 | 3748 ft | 154 kts | 259° |
| 2026-05-07 20:09 | 42.40875 | -70.71132 | 3582 ft | 158 kts | 259° |
| 2026-05-07 20:09 | 42.40622 | -70.72580 | 3241 ft | 158 kts | 260° |
| 2026-05-07 20:09 | 42.40371 | -70.74022 | 2899 ft | 157 kts | 260° |
| 2026-05-07 20:10 | 42.39883 | -70.76806 | 2545 ft | 149 kts | 261° |
| 2026-05-07 20:10 | 42.39645 | -70.78176 | 2440 ft | 150 kts | 260° |
| 2026-05-07 20:10 | 42.39407 | -70.79534 | 2322 ft | 142 kts | 259° |
| 2026-05-07 20:10 | 42.39185 | -70.80798 | 2226 ft | 141 kts | 259° |
| 2026-05-07 20:11 | 42.38959 | -70.82094 | 2117 ft | 139 kts | 259° |
| 2026-05-07 20:11 | 42.38735 | -70.83371 | 2017 ft | 140 kts | 258° |
| 2026-05-07 20:11 | 42.38512 | -70.84649 | 1941 ft | 141 kts | 260° |
| 2026-05-07 20:11 | 42.38289 | -70.85912 | 1813 ft | 137 kts | 259° |
| 2026-05-07 20:12 | 42.38068 | -70.87166 | 1711 ft | 138 kts | 259° |
| 2026-05-07 20:12 | 42.37845 | -70.88438 | 1584 ft | 140 kts | 259° |
| 2026-05-07 20:12 | 42.37625 | -70.89683 | 1391 ft | 136 kts | 259° |
| 2026-05-07 20:12 | 42.37409 | -70.90905 | 1212 ft | 134 kts | 259° |
| 2026-05-07 20:13 | 42.37189 | -70.92147 | 1024 ft | 135 kts | 260° |
| 2026-05-07 20:13 | 42.36978 | -70.93352 | 845 ft | 131 kts | 259° |
| 2026-05-07 20:13 | 42.36765 | -70.94552 | 668 ft | 131 kts | 260° |
| 2026-05-07 20:13 | 42.36550 | -70.95772 | 486 ft | 135 kts | 261° |
| 2026-05-07 20:14 | 42.36341 | -70.96965 | 292 ft | 133 kts | 260° |
| 2026-05-07 20:14 | 42.36120 | -70.98194 | 138 ft | 133 kts | 261° |
| 2026-05-07 20:14 | 42.35909 | -70.99392 | 26 ft | 124 kts | 259° |
| 2026-05-07 20:14 | 42.35768 | -71.00198 | 28 ft | 57 kts | 256° |
| 2026-05-07 20:15 | 42.35712 | -71.00512 | 29 ft | 15 kts | 256° |
| 2026-05-07 20:15 | 42.35706 | -71.00549 | 26 ft | 2 kts | 256° |
| 2026-05-07 20:15 | 42.35701 | -71.00578 | 26 ft | 4 kts | 256° |
| 2026-05-07 20:15 | 42.35692 | -71.00628 | 23 ft | 6 kts | 256° |
| 2026-05-07 20:16 | 42.35680 | -71.00696 | 24 ft | 8 kts | 257° |
| 2026-05-07 20:16 | 42.35666 | -71.00779 | 24 ft | 10 kts | 257° |
| 2026-05-07 20:16 | 42.35650 | -71.00874 | 24 ft | 11 kts | 257° |
| 2026-05-07 20:16 | 42.35635 | -71.00985 | 24 ft | 13 kts | 268° |
| 2026-05-07 20:17 | 42.35642 | -71.01091 | 26 ft | 10 kts | 278° |
| 2026-05-07 20:17 | 42.35667 | -71.01173 | 29 ft | 9 kts | 299° |
| 2026-05-07 20:17 | 42.35708 | -71.01241 | 27 ft | 9 kts | 313° |
| 2026-05-07 20:17 | 42.35741 | -71.01308 | 27 ft | 8 kts | 293° |
| 2026-05-07 20:18 | 42.35755 | -71.01363 | 30 ft | 5 kts | 288° |
| 2026-05-07 20:18 | 42.35766 | -71.01402 | 30 ft | 4 kts | 291° |
| 2026-05-07 20:18 | 42.35778 | -71.01444 | 31 ft | 6 kts | 292° |
| 2026-05-07 20:18 | 42.35796 | -71.01503 | 30 ft | 8 kts | 289° |
| 2026-05-07 20:19 | 42.35814 | -71.01588 | 31 ft | 11 kts | 284° |
| 2026-05-07 20:19 | 42.35855 | -71.01661 | 30 ft | 3 kts | 330° |
| 2026-05-07 20:19 | 42.35863 | -71.01659 | 31 ft | 2 kts | 13° |
| 2026-05-07 20:19 | 42.35884 | -71.01649 | 32 ft | 5 kts | 20° |
| 2026-05-07 20:20 | 42.35933 | -71.01625 | 32 ft | 10 kts | 20° |
| 2026-05-07 20:20 | 42.36018 | -71.01584 | 30 ft | 14 kts | 19° |
| 2026-05-07 20:20 | 42.36070 | -71.01604 | 28 ft | 5 kts | 298° |
| 2026-05-07 20:20 | 42.36087 | -71.01664 | 28 ft | 9 kts | 290° |
| 2026-05-07 20:21 | 42.36093 | -71.01685 | 27 ft | 0 kts | 290° |